Time;durP1;ratioP1;P1;durP2;ratioP2;P2;SDS_P1;SDS_P2;PMS_P1;PMS_P2;Temp;Humidity;BMP_temperature;BMP_pressure;BME280_temperature;BME280_humidity;BME280_pressure;Samples;Min_cycle;Max_cycle;Signal;HPM_P1;HPM_P2
2021/12/08 07:32:44;;;;;;;3.10;0.70;;;;;;;;;;5123044;27;20844;-73
2021/12/08 07:35:16;;;;;;;2.50;0.82;;;;;;;;;;5107311;28;20102;-74
2021/12/08 07:37:42;;;;;;;1.30;0.65;;;;;;;;;;5104688;28;20111;-74
2021/12/08 07:40:13;;;;;;;1.55;0.95;;;;;;;;;;5106075;28;20490;-74
2021/12/08 07:42:44;;;;;;;2.15;0.70;;;;;;;;;;5113845;28;20066;-75
2021/12/08 07:45:13;;;;;;;2.28;0.88;;;;;;;;;;5113236;28;20111;-74
2021/12/08 07:47:39;;;;;;;2.17;0.77;;;;;;;;;;5112070;28;20080;-73
2021/12/08 07:50:21;;;;;;;2.88;0.88;;;;;;;;;;5111147;28;20060;-74
2021/12/08 07:52:48;;;;;;;2.88;0.90;;;;;;;;;;5110744;28;20036;-75
2021/12/08 07:55:20;;;;;;;2.38;0.82;;;;;;;;;;5112766;28;20024;-74
2021/12/08 07:57:46;;;;;;;1.70;0.70;;;;;;;;;;5114568;28;20032;-74
2021/12/08 08:00:17;;;;;;;2.10;0.90;;;;;;;;;;5115518;28;20027;-75
2021/12/08 08:02:44;;;;;;;1.90;0.80;;;;;;;;;;5115272;28;20063;-75
2021/12/08 08:05:10;;;;;;;1.35;0.90;;;;;;;;;;5113372;28;20026;-75
2021/12/08 08:07:37;;;;;;;2.88;0.90;;;;;;;;;;5112549;28;20042;-76
2021/12/08 08:10:12;;;;;;;3.45;0.95;;;;;;;;;;5115192;28;20031;-77
2021/12/08 08:12:38;;;;;;;4.88;1.02;;;;;;;;;;5112591;28;20559;-77
2021/12/08 08:15:07;;;;;;;1.80;0.70;;;;;;;;;;5117847;28;20023;-76
2021/12/08 08:17:38;;;;;;;3.47;1.23;;;;;;;;;;5112820;28;20023;-76
2021/12/08 08:20:08;;;;;;;4.50;0.93;;;;;;;;;;5112235;28;20402;-77
2021/12/08 08:22:34;;;;;;;1.65;1.15;;;;;;;;;;5113342;28;20043;-77
2021/12/08 08:25:02;;;;;;;3.78;1.20;;;;;;;;;;5112680;28;20029;-75
2021/12/08 08:27:28;;;;;;;3.17;1.30;;;;;;;;;;5116032;28;20068;-76
2021/12/08 08:29:55;;;;;;;4.18;2.70;;;;;;;;;;5113190;28;20057;-76
2021/12/08 08:32:25;;;;;;;2.17;0.98;;;;;;;;;;5109662;28;20048;-76
2021/12/08 08:34:55;;;;;;;4.43;1.20;;;;;;;;;;5112805;28;20058;-77
2021/12/08 08:37:22;;;;;;;2.85;1.10;;;;;;;;;;5113999;28;20039;-77
2021/12/08 08:39:51;;;;;;;2.67;1.20;;;;;;;;;;5110238;28;20433;-76
2021/12/08 08:42:22;;;;;;;7.90;3.15;;;;;;;;;;5111850;28;20554;-77
2021/12/08 08:44:54;;;;;;;2.17;1.10;;;;;;;;;;5097291;28;20368;-77
2021/12/08 08:47:23;;;;;;;3.38;1.02;;;;;;;;;;5096868;28;20449;-76
2021/12/08 08:49:50;;;;;;;4.13;1.65;;;;;;;;;;5098163;28;20020;-76
2021/12/08 08:52:24;;;;;;;2.63;1.00;;;;;;;;;;5099763;28;20028;-76
2021/12/08 08:54:53;;;;;;;5.15;0.90;;;;;;;;;;5098269;28;20020;-76
2021/12/08 08:57:24;;;;;;;4.00;1.08;;;;;;;;;;5098690;28;20111;-76
2021/12/08 08:59:54;;;;;;;6.90;1.02;;;;;;;;;;5098431;28;20097;-76
2021/12/08 09:02:23;;;;;;;3.67;1.30;;;;;;;;;;5100053;28;20429;-76
2021/12/08 09:04:52;;;;;;;3.90;1.05;;;;;;;;;;5098459;28;20364;-76
2021/12/08 09:07:23;;;;;;;3.00;0.90;;;;;;;;;;5099449;28;20024;-76
2021/12/08 09:09:50;;;;;;;3.67;1.00;;;;;;;;;;5093767;28;20063;-76
2021/12/08 09:12:16;;;;;;;4.20;0.80;;;;;;;;;;5098526;28;20490;-76
2021/12/08 09:14:52;;;;;;;1.48;1.10;;;;;;;;;;5097454;28;20016;-76
2021/12/08 09:17:41;;;;;;;0.90;0.57;;;;;;;;;;5095063;28;20032;-77
2021/12/08 09:20:14;;;;;;;3.05;0.85;;;;;;;;;;5087890;28;20036;-77
2021/12/08 09:22:53;;;;;;;2.03;1.00;;;;;;;;;;5093276;28;20019;-76
2021/12/08 09:25:25;;;;;;;1.92;1.27;;;;;;;;;;5089875;28;20054;-76
2021/12/08 09:27:53;;;;;;;3.88;1.13;;;;;;;;;;5097588;28;20070;-76
2021/12/08 09:30:33;;;;;;;2.15;0.77;;;;;;;;;;5102254;28;20028;-75
2021/12/08 09:33:07;;;;;;;1.15;0.93;;;;;;;;;;5100444;28;20077;-75
2021/12/08 09:35:39;;;;;;;3.45;1.70;;;;;;;;;;5097141;28;20415;-77
2021/12/08 09:38:10;;;;;;;4.05;1.52;;;;;;;;;;5097384;28;20051;-77
2021/12/08 09:40:39;;;;;;;1.58;0.90;;;;;;;;;;5099126;28;20520;-76
2021/12/08 09:43:08;;;;;;;2.90;1.10;;;;;;;;;;5099841;28;20059;-76
2021/12/08 09:45:37;;;;;;;3.17;1.00;;;;;;;;;;5101077;28;20040;-77
2021/12/08 09:48:04;;;;;;;3.13;1.48;;;;;;;;;;5100801;28;20081;-77
2021/12/08 09:50:31;;;;;;;3.85;1.15;;;;;;;;;;5096209;28;20066;-76
2021/12/08 09:52:57;;;;;;;2.65;1.08;;;;;;;;;;5098042;28;20024;-76
2021/12/08 09:55:23;;;;;;;2.90;0.80;;;;;;;;;;5096795;28;20039;-77
2021/12/08 09:57:49;;;;;;;2.65;0.90;;;;;;;;;;5098175;28;20031;-76
2021/12/08 10:00:23;;;;;;;1.23;0.57;;;;;;;;;;5098999;28;20535;-76
2021/12/08 10:02:54;;;;;;;2.60;0.90;;;;;;;;;;5097796;28;20026;-77
2021/12/08 10:05:20;;;;;;;2.13;0.80;;;;;;;;;;5098354;28;20024;-76
2021/12/08 10:07:46;;;;;;;3.78;1.23;;;;;;;;;;5095642;28;20024;-76
2021/12/08 10:10:14;;;;;;;6.03;2.30;;;;;;;;;;5097807;28;20020;-76
2021/12/08 10:12:40;;;;;;;1.65;0.80;;;;;;;;;;5099401;28;20636;-76
2021/12/08 10:15:08;;;;;;;4.18;1.10;;;;;;;;;;5101217;28;20508;-76
2021/12/08 10:17:34;;;;;;;2.13;0.75;;;;;;;;;;5096288;28;20062;-76
2021/12/08 10:20:09;;;;;;;3.72;1.80;;;;;;;;;;5098736;28;20058;-76
2021/12/08 10:22:36;;;;;;;3.70;0.90;;;;;;;;;;5095273;28;20489;-77
2021/12/08 10:25:10;;;;;;;4.18;0.70;;;;;;;;;;5098196;28;20070;-76
2021/12/08 10:27:55;;;;;;;2.67;0.90;;;;;;;;;;5099892;28;20016;-77
2021/12/08 10:30:23;;;;;;;2.13;0.70;;;;;;;;;;5093494;28;20148;-76
2021/12/08 10:32:50;;;;;;;5.00;0.60;;;;;;;;;;5096642;28;20028;-77
2021/12/08 10:35:39;;;;;;;4.43;1.52;;;;;;;;;;5097870;28;20114;-76
2021/12/08 10:38:05;;;;;;;1.83;0.57;;;;;;;;;;5097203;28;20041;-77
2021/12/08 10:40:32;;;;;;;1.15;0.60;;;;;;;;;;5095878;28;20032;-77
2021/12/08 10:42:58;;;;;;;2.88;0.68;;;;;;;;;;5098069;28;20031;-77
2021/12/08 10:45:28;;;;;;;1.80;0.70;;;;;;;;;;5100432;28;20023;-76
2021/12/08 10:47:58;;;;;;;1.35;0.60;;;;;;;;;;5097081;28;20093;-77
2021/12/08 10:56:01;;;;;;;1.33;0.50;;;;;;;;;;5096381;28;20439;-77
2021/12/08 10:58:31;;;;;;;1.05;0.50;;;;;;;;;;5096279;28;20016;-76
2021/12/08 11:00:59;;;;;;;2.13;0.98;;;;;;;;;;5094249;28;20402;-77
2021/12/08 11:03:30;;;;;;;10.38;6.32;;;;;;;;;;5099820;28;20039;-77
2021/12/08 11:06:01;;;;;;;1.20;0.85;;;;;;;;;;5079315;28;20424;-77
2021/12/08 11:08:34;;;;;;;0.30;0.30;;;;;;;;;;5095978;28;20042;-77
2021/12/08 11:11:00;;;;;;;0.47;0.45;;;;;;;;;;5095972;28;20028;-76
2021/12/08 11:13:31;;;;;;;0.98;0.50;;;;;;;;;;5092939;28;20081;-77
2021/12/08 11:16:03;;;;;;;2.28;1.02;;;;;;;;;;5095437;28;20025;-77
2021/12/08 11:18:30;;;;;;;0.80;0.65;;;;;;;;;;5097710;28;20027;-76
2021/12/08 11:20:59;;;;;;;0.90;0.68;;;;;;;;;;5097697;28;20056;-77
2021/12/08 11:23:39;;;;;;;0.95;0.60;;;;;;;;;;5096129;28;20416;-77
2021/12/08 11:26:10;;;;;;;1.50;0.93;;;;;;;;;;5096408;28;20012;-77
2021/12/08 11:28:36;;;;;;;1.52;0.55;;;;;;;;;;5094264;28;20040;-76
2021/12/08 11:31:14;;;;;;;1.55;0.80;;;;;;;;;;5092762;28;20606;-76
2021/12/08 11:33:44;;;;;;;0.70;0.50;;;;;;;;;;5098197;28;20058;-75
2021/12/08 11:36:10;;;;;;;1.25;0.80;;;;;;;;;;5099536;28;20035;-77
2021/12/08 11:38:36;;;;;;;0.50;0.50;;;;;;;;;;5095518;28;20081;-76
2021/12/08 11:41:08;;;;;;;1.23;0.60;;;;;;;;;;5095513;28;20031;-76
2021/12/08 11:43:34;;;;;;;4.20;0.70;;;;;;;;;;5094486;28;20020;-76
2021/12/08 11:46:17;;;;;;;0.65;0.50;;;;;;;;;;5091896;28;20021;-77
2021/12/08 11:48:55;;;;;;;1.60;0.98;;;;;;;;;;5095541;28;20068;-76
2021/12/08 11:51:21;;;;;;;6.70;1.15;;;;;;;;;;5098347;28;20122;-76
2021/12/08 11:53:48;;;;;;;1.08;0.60;;;;;;;;;;5094226;28;20020;-76
2021/12/08 11:56:34;;;;;;;2.15;0.88;;;;;;;;;;5096441;28;20428;-76
2021/12/08 11:59:02;;;;;;;1.85;0.63;;;;;;;;;;5093269;28;20165;-76
2021/12/08 12:01:28;;;;;;;3.50;1.30;;;;;;;;;;5093209;28;20025;-77
2021/12/08 12:03:55;;;;;;;0.80;0.60;;;;;;;;;;5095643;28;20572;-76
2021/12/08 12:06:27;;;;;;;2.38;0.50;;;;;;;;;;5098580;28;20036;-77
2021/12/08 12:08:54;;;;;;;3.13;1.90;;;;;;;;;;5094557;28;20028;-77
2021/12/08 12:11:24;;;;;;;3.10;1.55;;;;;;;;;;5095790;28;20023;-76
2021/12/08 12:13:50;;;;;;;1.58;0.50;;;;;;;;;;5093301;28;20040;-76
2021/12/08 12:16:16;;;;;;;2.80;0.60;;;;;;;;;;5095620;28;20024;-77
2021/12/08 12:18:42;;;;;;;1.77;0.60;;;;;;;;;;5096404;28;20039;-76
2021/12/08 12:21:19;;;;;;;0.90;0.60;;;;;;;;;;5101884;28;20024;-76
2021/12/08 12:23:52;;;;;;;2.88;1.65;;;;;;;;;;5096930;28;20049;-76
2021/12/08 12:26:24;;;;;;;0.80;0.60;;;;;;;;;;5095135;28;20076;-77
2021/12/08 12:29:02;;;;;;;0.60;0.43;;;;;;;;;;5096790;28;20028;-76
2021/12/08 12:31:39;;;;;;;2.72;0.82;;;;;;;;;;5098267;28;20372;-76
2021/12/08 12:34:20;;;;;;;1.70;0.70;;;;;;;;;;5096661;28;20391;-77
2021/12/08 12:36:46;;;;;;;2.05;0.50;;;;;;;;;;5097148;28;20020;-76
2021/12/08 12:39:14;;;;;;;2.92;0.80;;;;;;;;;;5102889;28;20031;-76
2021/12/08 12:41:41;;;;;;;1.60;0.50;;;;;;;;;;5096527;28;20028;-75
2021/12/08 12:44:15;;;;;;;2.70;0.60;;;;;;;;;;5091541;28;20032;-78
2021/12/08 12:47:00;;;;;;;1.27;0.50;;;;;;;;;;5091724;28;20036;-77
2021/12/08 12:49:26;;;;;;;1.30;0.70;;;;;;;;;;5083319;28;20025;-77
2021/12/08 12:51:59;;;;;;;0.65;0.50;;;;;;;;;;5084305;28;20033;-78
2021/12/08 12:54:26;;;;;;;1.58;0.60;;;;;;;;;;5089475;28;20029;-78
2021/12/08 12:56:53;;;;;;;2.92;0.70;;;;;;;;;;5094400;28;20024;-79
2021/12/08 12:59:21;;;;;;;0.60;0.50;;;;;;;;;;5091321;28;20028;-76
2021/12/08 13:02:04;;;;;;;0.95;0.40;;;;;;;;;;5087762;28;20043;-76
2021/12/08 13:04:34;;;;;;;0.57;0.47;;;;;;;;;;5090818;28;20048;-76
2021/12/08 13:07:02;;;;;;;1.45;0.60;;;;;;;;;;5094721;28;20032;-75
2021/12/08 13:09:38;;;;;;;0.55;0.55;;;;;;;;;;5099742;28;20514;-77
2021/12/08 13:12:13;;;;;;;2.35;1.20;;;;;;;;;;5098764;28;20032;-77
2021/12/08 13:14:39;;;;;;;0.57;0.50;;;;;;;;;;5094767;28;20039;-77
2021/12/08 13:17:26;;;;;;;2.65;1.35;;;;;;;;;;5092159;28;20360;-76
2021/12/08 13:19:56;;;;;;;1.25;0.52;;;;;;;;;;5084772;28;20078;-76
2021/12/08 13:22:41;;;;;;;0.68;0.40;;;;;;;;;;5096545;28;20034;-77
2021/12/08 13:25:22;;;;;;;1.08;0.70;;;;;;;;;;5094773;28;20020;-78
2021/12/08 13:27:52;;;;;;;0.88;0.70;;;;;;;;;;5093651;28;20020;-75
2021/12/08 13:30:19;;;;;;;1.55;0.50;;;;;;;;;;5100500;28;20455;-76
2021/12/08 13:32:46;;;;;;;2.13;1.50;;;;;;;;;;5096333;28;20059;-75
2021/12/08 13:35:14;;;;;;;0.70;0.60;;;;;;;;;;5091138;28;20034;-76
2021/12/08 13:37:56;;;;;;;0.82;0.57;;;;;;;;;;5099037;28;20123;-74
2021/12/08 13:40:39;;;;;;;2.10;0.80;;;;;;;;;;5094876;28;20023;-76
2021/12/08 13:43:07;;;;;;;0.88;0.60;;;;;;;;;;5091535;28;20073;-75
2021/12/08 13:45:43;;;;;;;0.95;0.60;;;;;;;;;;5095214;28;20036;-74
2021/12/08 13:48:09;;;;;;;1.90;0.57;;;;;;;;;;5097368;28;20185;-76
2021/12/08 13:50:36;;;;;;;1.15;0.60;;;;;;;;;;5091503;28;20035;-76
2021/12/08 13:53:12;;;;;;;1.00;0.70;;;;;;;;;;5096364;28;20065;-75
2021/12/08 13:55:58;;;;;;;1.42;0.80;;;;;;;;;;5092630;28;20110;-76
2021/12/08 13:58:24;;;;;;;1.48;0.80;;;;;;;;;;5082252;28;20039;-76
2021/12/08 14:00:50;;;;;;;1.40;0.88;;;;;;;;;;5083180;28;20024;-77
2021/12/08 14:03:35;;;;;;;0.98;0.60;;;;;;;;;;5098013;28;20020;-77
2021/12/08 14:06:02;;;;;;;2.55;1.10;;;;;;;;;;5096718;28;20040;-77
2021/12/08 14:08:30;;;;;;;0.73;0.50;;;;;;;;;;5096342;28;20031;-76
2021/12/08 14:11:06;;;;;;;1.23;0.63;;;;;;;;;;5093742;28;20036;-77
2021/12/08 14:13:33;;;;;;;1.48;0.52;;;;;;;;;;5095861;28;20031;-77
2021/12/08 14:16:01;;;;;;;1.17;0.70;;;;;;;;;;5097266;28;20024;-77
2021/12/08 14:18:36;;;;;;;1.20;0.90;;;;;;;;;;5094447;28;20048;-76
2021/12/08 14:21:04;;;;;;;3.70;1.98;;;;;;;;;;5094819;28;20031;-76
2021/12/08 14:23:31;;;;;;;5.88;0.90;;;;;;;;;;5092957;28;20031;-77
2021/12/08 14:25:59;;;;;;;3.40;1.33;;;;;;;;;;5094629;28;20491;-77
2021/12/08 14:28:41;;;;;;;6.03;2.47;;;;;;;;;;5095147;28;20024;-76
2021/12/08 14:31:07;;;;;;;7.20;4.32;;;;;;;;;;5097035;28;20040;-77
2021/12/08 14:33:33;;;;;;;2.33;0.70;;;;;;;;;;5098102;28;20032;-77
2021/12/08 14:36:01;;;;;;;3.92;2.13;;;;;;;;;;5097148;28;20031;-77
2021/12/08 14:38:27;;;;;;;2.53;0.70;;;;;;;;;;5095443;28;20044;-77
2021/12/08 14:40:53;;;;;;;3.20;1.10;;;;;;;;;;5092037;28;20434;-77
2021/12/08 14:43:27;;;;;;;1.48;1.10;;;;;;;;;;5095208;28;20028;-76
2021/12/08 14:45:53;;;;;;;2.78;0.70;;;;;;;;;;5096264;28;20032;-76
2021/12/08 14:48:19;;;;;;;2.00;0.85;;;;;;;;;;5099750;28;20118;-77
2021/12/08 14:50:45;;;;;;;0.98;0.60;;;;;;;;;;5092412;28;20028;-77
2021/12/08 14:53:12;;;;;;;1.38;0.77;;;;;;;;;;5096193;28;20490;-76
2021/12/08 14:55:39;;;;;;;2.33;0.70;;;;;;;;;;5093044;28;20107;-77
2021/12/08 14:58:05;;;;;;;2.15;1.05;;;;;;;;;;5090819;28;20024;-77
2021/12/08 15:00:32;;;;;;;2.17;0.77;;;;;;;;;;5093722;28;20042;-76
2021/12/08 15:03:08;;;;;;;1.63;1.25;;;;;;;;;;5094339;28;20020;-77
2021/12/08 15:05:36;;;;;;;2.03;1.27;;;;;;;;;;5093302;28;20035;-77
2021/12/08 15:08:12;;;;;;;2.30;1.23;;;;;;;;;;5088960;28;20032;-77
2021/12/08 15:10:38;;;;;;;2.25;1.30;;;;;;;;;;5088589;28;20441;-77
2021/12/08 15:13:09;;;;;;;3.63;1.42;;;;;;;;;;5094677;28;20031;-76
2021/12/08 15:15:35;;;;;;;0.93;0.80;;;;;;;;;;5097842;28;20023;-77
2021/12/08 15:18:03;;;;;;;1.73;1.23;;;;;;;;;;5094909;28;20089;-77
2021/12/08 15:20:35;;;;;;;3.30;1.10;;;;;;;;;;5093657;28;20024;-77
2021/12/08 15:23:02;;;;;;;0.82;0.52;;;;;;;;;;5092586;28;20495;-76
2021/12/08 15:25:29;;;;;;;0.90;0.70;;;;;;;;;;5100377;28;20487;-77
2021/12/08 15:27:56;;;;;;;0.90;0.50;;;;;;;;;;5093033;28;20483;-76
2021/12/08 15:30:37;;;;;;;1.30;0.65;;;;;;;;;;5101665;28;20020;-77
2021/12/08 15:33:04;;;;;;;1.30;0.70;;;;;;;;;;5098870;28;20039;-77
2021/12/08 15:35:31;;;;;;;1.38;0.80;;;;;;;;;;5098648;28;20023;-76
2021/12/08 15:37:57;;;;;;;1.10;0.70;;;;;;;;;;5097272;28;20032;-77
2021/12/08 15:40:28;;;;;;;1.55;1.00;;;;;;;;;;5099868;28;20502;-76
2021/12/08 15:42:55;;;;;;;1.40;1.02;;;;;;;;;;5093222;28;20028;-77
2021/12/08 15:45:22;;;;;;;2.40;1.05;;;;;;;;;;5101798;28;20543;-77
2021/12/08 15:47:48;;;;;;;0.82;0.68;;;;;;;;;;5097336;28;20039;-76
2021/12/08 15:50:20;;;;;;;3.63;1.30;;;;;;;;;;5097474;28;20042;-77
2021/12/08 15:52:51;;;;;;;1.70;1.00;;;;;;;;;;5097523;28;20032;-77
2021/12/08 15:55:17;;;;;;;1.80;1.15;;;;;;;;;;5103728;28;20020;-77
2021/12/08 15:57:43;;;;;;;3.42;1.40;;;;;;;;;;5100905;28;20026;-76
2021/12/08 16:00:10;;;;;;;3.25;0.98;;;;;;;;;;5103542;28;20024;-77
2021/12/08 16:02:39;;;;;;;1.13;0.73;;;;;;;;;;5100461;28;20097;-77
2021/12/08 16:05:08;;;;;;;4.82;2.13;;;;;;;;;;5101516;28;20770;-77
2021/12/08 16:07:36;;;;;;;2.50;1.10;;;;;;;;;;5102190;28;20047;-77
2021/12/08 16:10:15;;;;;;;2.63;1.30;;;;;;;;;;5101239;28;20113;-77
2021/12/08 16:12:41;;;;;;;3.10;1.20;;;;;;;;;;5100968;28;20051;-77
2021/12/08 16:15:07;;;;;;;1.80;1.10;;;;;;;;;;5104507;28;20442;-76
2021/12/08 16:17:35;;;;;;;1.77;0.98;;;;;;;;;;5101865;28;20413;-77
2021/12/08 16:20:06;;;;;;;1.35;0.90;;;;;;;;;;5093120;28;20051;-77
2021/12/08 16:22:33;;;;;;;1.42;0.90;;;;;;;;;;5095846;28;20086;-75
2021/12/08 16:24:59;;;;;;;3.22;1.95;;;;;;;;;;5090906;28;20054;-77
2021/12/08 16:27:28;;;;;;;2.58;1.60;;;;;;;;;;5045927;28;20048;-78
2021/12/08 16:29:55;;;;;;;1.30;0.90;;;;;;;;;;5045395;28;20021;-78
2021/12/08 16:32:22;;;;;;;1.65;1.05;;;;;;;;;;5047325;28;20049;-78
2021/12/08 16:34:52;;;;;;;3.58;1.33;;;;;;;;;;5049063;28;20021;-78
2021/12/08 16:37:23;;;;;;;3.60;1.40;;;;;;;;;;5049733;28;20443;-78
2021/12/08 16:45:13;;;;;;;3.15;1.73;;;;;;;;;;5052546;28;20048;-78
2021/12/08 16:47:39;;;;;;;4.45;1.35;;;;;;;;;;5053025;28;20075;-84
2021/12/08 16:50:06;;;;;;;2.30;1.35;;;;;;;;;;5050299;28;20025;-81
2021/12/08 16:52:32;;;;;;;2.42;1.17;;;;;;;;;;5050909;28;20041;-81
2021/12/08 16:54:59;;;;;;;1.92;1.50;;;;;;;;;;5050535;28;20025;-82
2021/12/08 16:57:25;;;;;;;2.42;1.45;;;;;;;;;;5051644;28;20040;-83
2021/12/08 16:59:51;;;;;;;3.88;2.03;;;;;;;;;;5051684;28;20021;-82
2021/12/08 17:02:18;;;;;;;2.47;1.33;;;;;;;;;;5050049;28;20029;-81
2021/12/08 17:04:44;;;;;;;2.13;1.40;;;;;;;;;;5047522;28;20104;-77
2021/12/08 17:07:10;;;;;;;4.60;1.90;;;;;;;;;;5049323;28;20029;-79
2021/12/08 17:09:37;;;;;;;2.33;1.50;;;;;;;;;;5050637;28;20055;-81
2021/12/08 17:12:04;;;;;;;1.45;0.90;;;;;;;;;;5050187;28;20045;-80
2021/12/08 17:14:30;;;;;;;1.70;1.50;;;;;;;;;;5049053;28;20025;-79
2021/12/08 17:16:56;;;;;;;2.20;1.13;;;;;;;;;;5046740;28;20029;-73
2021/12/08 17:19:22;;;;;;;2.00;1.20;;;;;;;;;;5045184;28;20662;-73
2021/12/08 17:21:48;;;;;;;2.00;1.13;;;;;;;;;;5049173;28;20037;-75
2021/12/08 17:24:15;;;;;;;2.53;1.33;;;;;;;;;;5051521;28;20036;-74
2021/12/08 17:26:42;;;;;;;3.08;1.52;;;;;;;;;;5048498;28;20033;-75
2021/12/08 17:29:09;;;;;;;3.13;1.40;;;;;;;;;;5048832;28;20024;-74
2021/12/08 17:31:35;;;;;;;4.65;2.28;;;;;;;;;;5048873;28;20051;-76
2021/12/08 17:34:02;;;;;;;1.85;1.50;;;;;;;;;;5045402;28;20020;-75
2021/12/08 17:36:28;;;;;;;2.85;1.23;;;;;;;;;;5042189;28;20048;-74
2021/12/08 17:38:57;;;;;;;3.67;1.20;;;;;;;;;;5049731;28;20025;-75
2021/12/08 17:41:23;;;;;;;2.60;1.30;;;;;;;;;;5048449;28;20132;-74
2021/12/08 17:43:50;;;;;;;3.58;1.40;;;;;;;;;;5049770;28;20017;-74
2021/12/08 17:46:16;;;;;;;2.75;1.17;;;;;;;;;;5044302;28;20461;-74
2021/12/08 17:48:42;;;;;;;4.53;1.20;;;;;;;;;;5043192;28;20032;-74
2021/12/08 17:51:10;;;;;;;1.80;1.20;;;;;;;;;;5043162;28;20036;-74
2021/12/08 17:53:45;;;;;;;5.20;2.42;;;;;;;;;;5041795;28;20067;-78
2021/12/08 17:56:11;;;;;;;3.72;1.90;;;;;;;;;;5045418;28;20455;-74
2021/12/08 17:58:41;;;;;;;7.75;1.70;;;;;;;;;;5045924;28;20123;-75
2021/12/08 18:01:07;;;;;;;10.15;4.68;;;;;;;;;;5044175;28;20067;-76
2021/12/08 18:03:34;;;;;;;3.05;1.70;;;;;;;;;;5038403;28;20045;-75
2021/12/08 18:06:01;;;;;;;7.72;3.22;;;;;;;;;;5046305;28;20112;-72
2021/12/08 18:08:29;;;;;;;4.82;1.70;;;;;;;;;;5046428;28;20712;-73
2021/12/08 18:10:56;;;;;;;5.22;2.22;;;;;;;;;;5049697;28;20476;-73
2021/12/08 18:13:22;;;;;;;7.72;4.05;;;;;;;;;;5046768;28;20037;-73
2021/12/08 18:15:50;;;;;;;7.90;4.28;;;;;;;;;;5046687;28;20021;-73
2021/12/08 18:18:17;;;;;;;19.10;3.25;;;;;;;;;;5043957;28;20029;-74
2021/12/08 18:20:43;;;;;;;15.27;2.65;;;;;;;;;;5047735;28;20033;-73
2021/12/08 18:23:10;;;;;;;10.35;2.50;;;;;;;;;;5046510;28;20029;-72
2021/12/08 18:25:37;;;;;;;10.82;2.58;;;;;;;;;;5047369;28;20020;-69
2021/12/08 18:28:03;;;;;;;6.47;2.42;;;;;;;;;;5052087;28;20024;-74
2021/12/08 18:30:31;;;;;;;5.15;2.50;;;;;;;;;;5046168;28;20403;-72
2021/12/08 18:32:57;;;;;;;4.25;1.90;;;;;;;;;;5051961;28;20033;-67
2021/12/08 18:37:53;;;;;;;3.00;1.45;;;;;;;;;;5046439;28;20439;-69
2021/12/08 18:40:19;;;;;;;2.75;1.48;;;;;;;;;;5046504;28;20025;-72
2021/12/08 18:42:45;;;;;;;2.75;1.38;;;;;;;;;;5065873;28;20024;-73
2021/12/08 18:45:11;;;;;;;3.25;1.38;;;;;;;;;;5051590;28;20029;-69
2021/12/08 18:47:38;;;;;;;1.85;1.10;;;;;;;;;;5050067;28;20029;-69
2021/12/08 18:50:05;;;;;;;3.50;1.25;;;;;;;;;;5045366;28;20408;-70
2021/12/08 18:52:31;;;;;;;1.95;1.10;;;;;;;;;;5045826;28;20037;-71
2021/12/08 18:54:58;;;;;;;2.60;1.27;;;;;;;;;;5047737;28;20025;-73
2021/12/08 18:57:26;;;;;;;2.35;1.35;;;;;;;;;;5044538;28;20036;-74
2021/12/08 18:59:53;;;;;;;2.22;1.20;;;;;;;;;;5048234;28;20025;-71
2021/12/08 19:02:20;;;;;;;2.75;1.40;;;;;;;;;;5047400;28;20032;-72
2021/12/08 19:04:46;;;;;;;6.53;3.35;;;;;;;;;;5047912;28;20503;-72
2021/12/08 19:07:12;;;;;;;2.60;1.45;;;;;;;;;;5045140;28;20033;-72
2021/12/08 19:09:39;;;;;;;2.40;1.55;;;;;;;;;;5046477;28;20407;-72
2021/12/08 19:12:05;;;;;;;3.65;1.90;;;;;;;;;;5048329;28;20043;-71
2021/12/08 19:14:32;;;;;;;4.45;2.05;;;;;;;;;;5046418;28;20029;-71
2021/12/08 19:16:59;;;;;;;4.65;1.83;;;;;;;;;;5046737;28;20021;-72
2021/12/08 19:19:26;;;;;;;2.88;1.83;;;;;;;;;;5045804;28;20033;-71
2021/12/08 19:21:52;;;;;;;3.35;1.90;;;;;;;;;;5050435;28;20021;-71
2021/12/08 19:24:19;;;;;;;2.30;1.30;;;;;;;;;;5051692;28;20037;-72
2021/12/08 19:26:46;;;;;;;2.70;1.35;;;;;;;;;;5040853;28;20032;-71
2021/12/08 19:29:14;;;;;;;4.95;1.55;;;;;;;;;;5046067;28;20036;-71
2021/12/08 19:31:43;;;;;;;1.60;1.23;;;;;;;;;;5047472;28;20045;-70
2021/12/08 19:34:09;;;;;;;2.75;1.50;;;;;;;;;;5046300;28;20028;-70
2021/12/08 19:36:36;;;;;;;4.00;1.75;;;;;;;;;;5046820;28;20032;-71
2021/12/08 19:39:03;;;;;;;2.65;1.88;;;;;;;;;;5047176;28;20021;-70
2021/12/08 19:41:29;;;;;;;2.70;1.65;;;;;;;;;;5046893;28;20111;-71
2021/12/08 19:43:55;;;;;;;2.70;1.33;;;;;;;;;;5047981;28;20025;-72
2021/12/08 19:46:22;;;;;;;2.17;1.50;;;;;;;;;;5047325;28;20029;-71
2021/12/08 19:48:48;;;;;;;2.40;1.45;;;;;;;;;;5046395;28;20238;-70
2021/12/08 19:51:16;;;;;;;3.90;1.83;;;;;;;;;;5047611;28;20032;-72
2021/12/08 19:53:43;;;;;;;2.30;1.50;;;;;;;;;;5046182;28;20033;-72
2021/12/08 19:56:13;;;;;;;4.15;1.50;;;;;;;;;;5045252;28;20031;-71
2021/12/08 19:58:45;;;;;;;;;;;;;;;;;;5046654;28;20111;-70
2021/12/08 20:01:12;;;;;;;5.07;2.00;;;;;;;;;;5044922;28;19915;-71
2021/12/08 20:03:38;;;;;;;2.83;1.65;;;;;;;;;;5046748;28;20021;-70
2021/12/08 20:06:05;;;;;;;2.83;1.58;;;;;;;;;;5048131;28;20033;-70
2021/12/08 20:08:32;;;;;;;4.90;2.10;;;;;;;;;;5039809;28;20033;-73
2021/12/08 20:11:05;;;;;;;3.25;2.08;;;;;;;;;;5044292;28;20029;-72
2021/12/08 20:13:32;;;;;;;3.67;2.08;;;;;;;;;;5041107;28;20044;-70
2021/12/08 20:15:59;;;;;;;2.88;1.90;;;;;;;;;;5044422;28;20108;-70
2021/12/08 20:18:26;;;;;;;2.75;1.70;;;;;;;;;;5044993;28;20021;-71
2021/12/08 20:20:54;;;;;;;2.50;1.65;;;;;;;;;;5040444;28;20029;-70
2021/12/08 20:23:22;;;;;;;2.25;1.38;;;;;;;;;;5042454;28;20024;-70
2021/12/08 20:25:49;;;;;;;2.88;1.35;;;;;;;;;;5046026;28;20534;-72
2021/12/08 20:28:17;;;;;;;1.98;1.40;;;;;;;;;;5044582;28;20044;-72
2021/12/08 20:30:46;;;;;;;3.97;1.92;;;;;;;;;;5045146;28;20029;-72
2021/12/08 20:33:12;;;;;;;2.53;1.40;;;;;;;;;;5045055;28;20025;-73
2021/12/08 20:35:38;;;;;;;3.05;1.55;;;;;;;;;;5045874;28;20037;-74
2021/12/08 20:38:06;;;;;;;2.63;1.30;;;;;;;;;;5044360;28;20380;-74
2021/12/08 20:40:54;;;;;;;2.13;1.33;;;;;;;;;;5050219;28;20047;-72
2021/12/08 20:43:24;;;;;;;1.60;1.30;;;;;;;;;;5042918;28;20098;-70
2021/12/08 20:45:51;;;;;;;2.28;1.15;;;;;;;;;;5047829;28;20024;-70
2021/12/08 20:48:17;;;;;;;3.42;2.22;;;;;;;;;;5048710;28;20021;-70
2021/12/08 20:50:43;;;;;;;2.00;1.15;;;;;;;;;;5047780;28;20091;-70
2021/12/08 20:53:11;;;;;;;3.35;1.42;;;;;;;;;;5048283;28;20669;-70
2021/12/08 20:55:38;;;;;;;2.33;1.35;;;;;;;;;;5042664;28;20029;-70
2021/12/08 20:58:05;;;;;;;2.65;1.70;;;;;;;;;;5048994;28;20056;-69
2021/12/08 21:00:41;;;;;;;2.50;1.35;;;;;;;;;;5048691;28;20070;-70
2021/12/08 21:03:08;;;;;;;3.25;1.40;;;;;;;;;;5049949;28;20051;-69
2021/12/08 21:05:35;;;;;;;3.33;1.48;;;;;;;;;;5049685;28;20033;-70
2021/12/08 21:08:01;;;;;;;3.50;1.58;;;;;;;;;;5049942;28;20059;-70
2021/12/08 21:10:28;;;;;;;2.33;1.40;;;;;;;;;;5051895;28;20021;-69
2021/12/08 21:12:56;;;;;;;1.83;1.13;;;;;;;;;;5042756;28;20041;-69
2021/12/08 21:15:23;;;;;;;2.80;1.58;;;;;;;;;;5052149;28;20041;-70
2021/12/08 21:17:51;;;;;;;2.28;1.40;;;;;;;;;;5050540;28;20104;-69
2021/12/08 21:20:24;;;;;;;1.90;1.30;;;;;;;;;;5049021;28;20024;-69
2021/12/08 21:22:51;;;;;;;1.50;1.00;;;;;;;;;;5048686;28;20036;-71
2021/12/08 21:25:17;;;;;;;3.08;1.65;;;;;;;;;;5049578;28;20029;-71
2021/12/08 21:27:44;;;;;;;1.65;1.13;;;;;;;;;;5049294;28;20033;-70
2021/12/08 21:30:10;;;;;;;1.63;1.30;;;;;;;;;;5046401;28;20028;-70
2021/12/08 21:32:36;;;;;;;3.28;1.42;;;;;;;;;;5049279;28;20127;-71
2021/12/08 21:35:20;;;;;;;2.85;1.38;;;;;;;;;;5045229;28;20024;-74
2021/12/08 21:37:46;;;;;;;2.22;1.30;;;;;;;;;;5047433;28;20074;-71
2021/12/08 21:40:13;;;;;;;2.17;1.20;;;;;;;;;;5048568;28;20116;-71
2021/12/08 21:42:39;;;;;;;1.80;1.10;;;;;;;;;;5049676;28;20615;-70
2021/12/08 21:45:05;;;;;;;2.25;1.17;;;;;;;;;;5051206;28;20033;-71
2021/12/08 21:47:32;;;;;;;1.60;1.20;;;;;;;;;;5048711;28;20079;-70
2021/12/08 21:49:59;;;;;;;2.60;1.40;;;;;;;;;;5049434;28;20029;-71
2021/12/08 21:52:25;;;;;;;3.05;1.08;;;;;;;;;;5049687;28;20039;-71
2021/12/08 21:54:51;;;;;;;1.52;1.05;;;;;;;;;;5049373;28;20033;-71
2021/12/08 21:57:18;;;;;;;2.17;1.00;;;;;;;;;;5051575;28;20025;-71
2021/12/08 21:59:44;;;;;;;3.28;1.13;;;;;;;;;;5046995;28;20033;-70
2021/12/08 22:02:10;;;;;;;2.25;0.90;;;;;;;;;;5046608;28;20028;-72
2021/12/08 22:04:36;;;;;;;1.85;1.10;;;;;;;;;;5046512;28;20469;-73
2021/12/08 22:07:03;;;;;;;1.95;1.00;;;;;;;;;;5045458;28;20033;-72
2021/12/08 22:09:29;;;;;;;1.85;1.13;;;;;;;;;;5046519;28;20032;-73
2021/12/08 22:11:58;;;;;;;1.55;0.98;;;;;;;;;;5043460;28;20033;-72
2021/12/08 22:14:25;;;;;;;2.23;0.87;;;;;;;;;;5046937;28;20124;-70
2021/12/08 22:16:51;;;;;;;1.85;1.25;;;;;;;;;;5048438;28;20025;-71
2021/12/08 22:19:17;;;;;;;4.13;1.55;;;;;;;;;;5050364;28;20108;-71
2021/12/08 22:21:43;;;;;;;1.75;1.08;;;;;;;;;;5049666;28;20047;-72
2021/12/08 22:24:09;;;;;;;2.17;0.98;;;;;;;;;;5049147;28;20510;-72
2021/12/08 22:26:36;;;;;;;2.55;1.27;;;;;;;;;;5048381;28;20473;-71
2021/12/08 22:29:02;;;;;;;2.33;1.30;;;;;;;;;;5047152;28;20075;-71
2021/12/08 22:31:28;;;;;;;2.03;1.13;;;;;;;;;;5045127;28;20115;-72
2021/12/08 22:33:54;;;;;;;2.70;1.20;;;;;;;;;;5048958;28;20033;-71
2021/12/08 22:36:21;;;;;;;2.13;1.42;;;;;;;;;;5047011;28;20036;-70
2021/12/08 22:38:47;;;;;;;2.17;1.33;;;;;;;;;;5048261;28;20028;-71